createdAt,value
2023-02-27T00:00:13.249Z,426.00
2023-02-27T00:01:13.282Z,425.00
2023-02-27T00:46:16.257Z,426.00
2023-02-27T00:51:16.709Z,425.00
2023-02-27T00:54:15.948Z,425.00
2023-02-27T00:55:16.006Z,427.00
2023-02-27T00:56:16.056Z,426.00
2023-02-27T00:57:16.122Z,426.00
2023-02-27T00:58:16.165Z,428.00
2023-02-27T00:59:16.209Z,426.00
2023-02-27T01:00:16.265Z,424.00
2023-02-27T01:01:16.437Z,422.00
2023-02-27T01:02:16.432Z,423.00
2023-02-27T01:03:16.444Z,423.00
2023-02-27T01:04:16.479Z,421.00
2023-02-27T01:05:16.584Z,420.00
2023-02-27T01:06:16.583Z,421.00
2023-02-27T01:07:16.627Z,420.00
2023-02-27T01:08:16.675Z,417.00
2023-02-27T01:09:16.738Z,417.00
2023-02-27T01:10:16.785Z,414.00
2023-02-27T01:11:16.838Z,415.00
2023-02-27T01:12:16.916Z,418.00
2023-02-27T01:13:16.956Z,420.00
2023-02-27T01:14:16.992Z,420.00
2023-02-27T01:15:17.057Z,417.00
2023-02-27T01:16:17.152Z,418.00
2023-02-27T01:17:17.154Z,419.00
2023-02-27T01:18:17.197Z,421.00
2023-02-27T01:19:17.252Z,423.00
2023-02-27T01:20:17.292Z,422.00
2023-02-27T01:21:17.350Z,421.00
2023-02-27T01:22:17.399Z,422.00
2023-02-27T01:23:17.461Z,424.00
2023-02-27T01:24:17.494Z,426.00
2023-02-27T01:25:18.227Z,425.00
2023-02-27T01:26:17.604Z,424.00
2023-02-27T01:27:18.241Z,424.00
2023-02-27T01:28:17.714Z,422.00
2023-02-27T01:29:17.802Z,423.00
2023-02-27T01:30:17.793Z,424.00
2023-02-27T01:31:17.869Z,424.00
2023-02-27T01:32:18.081Z,427.00
2023-02-27T01:33:17.963Z,425.00
2023-02-27T01:34:18.022Z,425.00
2023-02-27T01:35:18.242Z,426.00
2023-02-27T01:36:18.199Z,423.00
2023-02-27T01:37:18.225Z,424.00
2023-02-27T01:38:18.206Z,422.00
2023-02-27T01:39:18.250Z,424.00
2023-02-27T01:40:18.315Z,425.00
2023-02-27T01:41:18.345Z,424.00
2023-02-27T01:42:18.401Z,423.00
2023-02-27T01:43:18.446Z,424.00
2023-02-27T01:44:18.506Z,425.00
2023-02-27T01:45:18.543Z,422.00
2023-02-27T01:46:18.593Z,422.00
2023-02-27T01:47:18.679Z,423.00
2023-02-27T01:48:19.235Z,424.00
2023-02-27T01:49:18.745Z,426.00
2023-02-27T01:50:18.874Z,426.00
2023-02-27T01:51:18.847Z,427.00
2023-02-27T01:52:18.898Z,427.00
2023-02-27T01:53:18.956Z,424.00
2023-02-27T01:54:19.004Z,425.00
2023-02-27T01:55:19.057Z,425.00
2023-02-27T01:56:19.100Z,427.00
2023-02-27T03:30:24.050Z,423.00
2023-02-27T03:31:24.196Z,423.00
2023-02-27T04:54:26.313Z,427.00
2023-02-27T05:11:27.121Z,424.00
2023-02-27T05:14:25.930Z,424.00
2023-02-27T05:15:25.993Z,422.00
2023-02-27T05:16:26.059Z,422.00
2023-02-27T05:17:26.038Z,423.00
2023-02-27T05:18:26.075Z,425.00
2023-02-27T05:19:26.113Z,424.00
2023-02-27T05:20:27.859Z,425.00
2023-02-27T05:21:26.618Z,423.00
2023-02-27T05:22:26.827Z,424.00
2023-02-27T05:23:26.151Z,426.00
2023-02-27T05:24:26.133Z,425.00
2023-02-27T05:25:26.124Z,426.00
2023-02-27T05:26:26.108Z,424.00
2023-02-27T05:27:26.114Z,423.00
2023-02-27T05:28:26.096Z,423.00
2023-02-27T05:29:26.097Z,425.00
2023-02-27T05:30:26.092Z,426.00
2023-02-27T05:31:26.361Z,428.00
2023-02-27T05:32:26.135Z,426.00
2023-02-27T05:33:26.071Z,429.00
2023-02-27T05:34:26.075Z,433.00
2023-02-27T05:35:28.909Z,432.00
2023-02-27T05:36:26.045Z,425.00
2023-02-27T05:37:26.048Z,425.00
2023-02-27T05:38:26.064Z,426.00
2023-02-27T05:39:26.042Z,423.00
2023-02-27T05:40:26.049Z,423.00
2023-02-27T05:41:26.380Z,425.00
2023-02-27T05:42:26.025Z,425.00
2023-02-27T05:43:26.060Z,426.00
2023-02-27T05:44:26.008Z,427.00
2023-02-27T05:45:26.000Z,426.00
2023-02-27T05:46:26.010Z,427.00
2023-02-27T05:47:26.001Z,428.00
2023-02-27T05:48:25.995Z,424.00
2023-02-27T05:49:25.980Z,423.00
2023-02-27T05:50:25.974Z,424.00
2023-02-27T05:51:26.271Z,422.00
2023-02-27T05:52:25.984Z,423.00
2023-02-27T05:53:25.983Z,419.00
2023-02-27T05:54:25.951Z,419.00
2023-02-27T05:55:25.929Z,418.00
2023-02-27T05:56:26.356Z,419.00
2023-02-27T05:57:25.935Z,421.00
2023-02-27T05:58:25.916Z,423.00
2023-02-27T05:59:25.932Z,424.00
2023-02-27T06:00:25.908Z,422.00
2023-02-27T06:01:25.903Z,420.00
2023-02-27T06:02:25.927Z,418.00
2023-02-27T06:03:26.047Z,421.00
2023-02-27T06:04:25.891Z,419.00
2023-02-27T06:05:25.876Z,418.00
2023-02-27T06:06:26.185Z,415.00
2023-02-27T06:07:25.927Z,416.00
2023-02-27T06:08:25.889Z,418.00
2023-02-27T06:09:25.864Z,418.00
2023-02-27T06:10:25.887Z,420.00
2023-02-27T06:11:25.882Z,419.00
2023-02-27T06:12:25.872Z,419.00
2023-02-27T06:13:25.853Z,417.00
2023-02-27T06:14:25.847Z,418.00
2023-02-27T06:15:25.841Z,419.00
2023-02-27T06:16:26.326Z,420.00
2023-02-27T06:17:25.841Z,419.00
2023-02-27T06:18:25.825Z,420.00
2023-02-27T06:19:25.836Z,419.00
2023-02-27T06:20:26.032Z,422.00
2023-02-27T06:21:25.894Z,456.00
2023-02-27T06:22:25.966Z,468.00
2023-02-27T06:23:26.018Z,471.00
2023-02-27T06:24:26.079Z,473.00
2023-02-27T06:25:26.136Z,474.00
2023-02-27T06:26:26.629Z,542.00
2023-02-27T06:27:26.241Z,572.00
2023-02-27T06:28:26.319Z,611.00
2023-02-27T06:29:26.356Z,601.00
2023-02-27T06:30:26.451Z,674.00
2023-02-27T06:31:26.461Z,689.00
2023-02-27T06:32:26.503Z,699.00
2023-02-27T06:33:26.643Z,787.00
2023-02-27T06:34:26.577Z,861.00
2023-02-27T06:35:26.701Z,842.00
2023-02-27T06:36:26.873Z,843.00
2023-02-27T06:37:26.606Z,873.00
2023-02-27T06:38:26.609Z,927.00
2023-02-27T06:39:26.839Z,975.00
2023-02-27T06:40:26.614Z,1011.00
2023-02-27T06:41:26.626Z,1024.00
2023-02-27T06:42:26.619Z,1059.00
2023-02-27T06:43:26.692Z,1082.00
2023-02-27T06:44:26.597Z,1103.00
2023-02-27T06:45:26.597Z,1113.00
2023-02-27T06:46:27.097Z,1124.00
2023-02-27T06:47:26.588Z,1147.00
2023-02-27T06:48:26.589Z,1191.00
2023-02-27T06:49:26.577Z,1202.00
2023-02-27T06:50:26.603Z,1225.00
2023-02-27T06:51:26.592Z,1245.00
2023-02-27T06:52:26.604Z,1261.00
2023-02-27T06:53:26.628Z,1275.00
2023-02-27T06:54:26.638Z,1295.00
2023-02-27T06:55:26.653Z,1336.00
2023-02-27T06:56:27.009Z,1360.00
2023-02-27T06:57:26.716Z,1391.00
2023-02-27T06:58:26.723Z,1422.00
2023-02-27T06:59:26.750Z,1448.00
2023-02-27T07:00:26.767Z,1465.00
2023-02-27T07:01:26.850Z,1477.00
2023-02-27T07:02:26.866Z,1489.00
2023-02-27T07:03:26.909Z,1518.00
2023-02-27T07:04:27.021Z,1560.00
2023-02-27T07:05:27.027Z,1591.00
2023-02-27T07:07:35.662Z,1624.00
2023-02-27T07:07:36.466Z,1604.00
2023-02-27T07:08:28.044Z,1635.00
2023-02-27T07:09:27.033Z,1653.00
2023-02-27T07:10:27.010Z,1698.00
2023-02-27T07:11:26.998Z,1706.00
2023-02-27T07:12:27.090Z,1701.00
2023-02-27T07:13:27.361Z,1702.00
2023-02-27T07:14:26.979Z,1700.00
2023-02-27T07:15:26.969Z,1710.00
2023-02-27T07:16:27.301Z,1710.00
2023-02-27T07:17:26.978Z,1712.00
2023-02-27T07:18:26.960Z,1716.00
2023-02-27T07:19:27.377Z,1711.00
2023-02-27T07:20:26.942Z,1710.00
2023-02-27T07:21:26.926Z,1711.00
2023-02-27T07:22:26.918Z,1697.00
2023-02-27T07:23:27.770Z,1651.00
2023-02-27T07:24:26.913Z,1647.00
2023-02-27T07:25:26.917Z,1658.00
2023-02-27T07:26:27.188Z,1575.00
2023-02-27T07:27:26.923Z,1625.00
2023-02-27T07:28:26.915Z,1672.00
2023-02-27T07:29:26.906Z,1686.00
2023-02-27T07:30:26.888Z,1701.00
2023-02-27T07:31:28.873Z,1734.00
2023-02-27T07:32:26.887Z,1757.00
2023-02-27T07:33:26.881Z,1764.00
2023-02-27T07:34:26.868Z,1779.00
2023-02-27T07:35:26.880Z,1785.00
2023-02-27T07:36:27.321Z,1791.00
2023-02-27T07:37:28.177Z,1802.00
2023-02-27T07:38:26.842Z,1823.00
2023-02-27T07:39:26.836Z,1838.00
2023-02-27T07:40:26.830Z,1853.00
2023-02-27T07:41:30.788Z,1864.00
2023-02-27T07:42:26.804Z,1872.00
2023-02-27T07:43:26.793Z,1879.00
2023-02-27T07:44:26.790Z,1903.00
2023-02-27T07:45:26.785Z,1918.00
2023-02-27T07:46:28.083Z,1933.00
2023-02-27T07:47:26.765Z,1944.00
2023-02-27T07:48:26.764Z,1956.00
2023-02-27T07:49:26.758Z,1968.00
2023-02-27T07:50:26.742Z,1988.00
2023-02-27T07:51:26.726Z,1994.00
2023-02-27T07:52:26.716Z,2001.00
2023-02-27T07:53:26.705Z,2008.00
2023-02-27T07:54:26.707Z,2014.00
2023-02-27T07:55:26.696Z,2008.00
2023-02-27T07:56:27.137Z,2010.00
2023-02-27T07:57:26.701Z,2004.00
2023-02-27T07:58:26.672Z,2023.00
2023-02-27T07:59:26.677Z,2039.00
2023-02-27T08:00:26.747Z,2052.00
2023-02-27T08:01:26.673Z,2056.00
2023-02-27T08:02:26.680Z,2067.00
2023-02-27T08:03:26.645Z,2076.00
2023-02-27T08:04:26.896Z,2084.00
2023-02-27T08:05:26.620Z,2093.00
2023-02-27T08:06:26.958Z,2099.00
2023-02-27T08:07:26.601Z,2142.00
2023-02-27T08:08:26.587Z,2156.00
2023-02-27T08:09:27.377Z,2171.00
2023-02-27T08:10:26.574Z,2189.00
2023-02-27T08:11:26.869Z,2234.00
2023-02-27T08:12:27.453Z,2261.00
2023-02-27T08:13:48.573Z,2272.00
2023-02-27T08:14:27.510Z,2282.00
2023-02-27T08:15:26.479Z,2335.00
2023-02-27T08:16:26.961Z,2339.00
2023-02-27T08:17:26.457Z,2349.00
2023-02-27T08:18:26.445Z,2359.00
2023-02-27T08:19:26.439Z,2363.00
2023-02-27T08:20:26.413Z,2405.00
2023-02-27T08:21:27.630Z,2435.00
2023-02-27T08:22:26.385Z,2442.00
2023-02-27T08:23:26.374Z,2493.00
2023-02-27T08:24:26.358Z,2531.00
2023-02-27T08:25:26.341Z,2536.00
2023-02-27T08:26:26.749Z,2550.00
2023-02-27T08:27:26.871Z,2563.00
2023-02-27T08:28:26.321Z,2573.00
2023-02-27T08:29:26.327Z,2596.00
2023-02-27T08:30:26.368Z,2618.00
2023-02-27T08:31:26.424Z,2639.00
2023-02-27T08:32:26.396Z,2657.00
2023-02-27T08:33:26.385Z,2706.00
2023-02-27T08:34:26.381Z,2723.00
2023-02-27T08:35:26.391Z,2727.00
2023-02-27T08:36:26.658Z,2739.00
2023-02-27T08:37:26.436Z,2762.00
2023-02-27T08:38:26.576Z,2782.00
2023-02-27T08:39:26.458Z,2780.00
2023-02-27T08:40:26.478Z,2777.00
2023-02-27T08:41:26.472Z,2813.00
2023-02-27T08:42:26.975Z,2831.00
2023-02-27T08:43:26.494Z,2845.00
2023-02-27T08:44:26.550Z,2857.00
2023-02-27T08:45:26.564Z,2881.00
2023-02-27T08:46:27.041Z,2914.00
2023-02-27T08:47:26.564Z,2939.00
2023-02-27T08:48:26.577Z,2965.00
2023-02-27T08:49:26.609Z,2999.00
2023-02-27T08:50:26.589Z,3005.00
2023-02-27T08:51:26.979Z,3022.00
2023-02-27T08:52:26.618Z,3042.00
2023-02-27T08:53:26.615Z,3061.00
2023-02-27T08:54:26.618Z,3071.00
2023-02-27T08:55:26.622Z,3093.00
2023-02-27T08:56:26.927Z,3110.00
2023-02-27T08:57:26.625Z,3128.00
2023-02-27T08:58:26.713Z,3143.00
2023-02-27T08:59:26.642Z,3238.00
2023-02-27T09:00:26.704Z,3241.00
2023-02-27T09:01:27.056Z,3243.00
2023-02-27T09:02:26.794Z,3255.00
2023-02-27T09:03:26.677Z,3316.00
2023-02-27T09:04:26.685Z,3314.00
2023-02-27T09:05:26.697Z,3321.00
2023-02-27T09:06:26.755Z,3349.00
2023-02-27T09:07:26.713Z,3365.00
2023-02-27T09:08:26.715Z,3383.00
2023-02-27T09:09:26.718Z,3413.00
2023-02-27T09:10:26.730Z,3484.00
2023-02-27T09:11:27.246Z,3510.00
2023-02-27T09:12:26.746Z,3515.00
2023-02-27T09:13:26.810Z,3526.00
2023-02-27T09:14:26.780Z,3279.00
2023-02-27T09:15:26.817Z,3295.00
2023-02-27T09:16:27.273Z,3254.00
2023-02-27T09:17:26.886Z,3117.00
2023-02-27T09:18:26.928Z,2925.00
2023-02-27T09:19:26.960Z,2791.00
2023-02-27T09:20:27.010Z,2822.00
2023-02-27T09:21:27.072Z,2788.00
2023-02-27T09:22:27.144Z,2756.00
2023-02-27T09:23:27.184Z,2590.00
2023-02-27T09:24:27.226Z,2201.00
2023-02-27T09:25:27.266Z,2232.00
2023-02-27T09:26:40.936Z,1945.00
2023-02-27T09:27:28.248Z,1673.00
2023-02-27T09:28:27.268Z,1500.00
2023-02-27T09:29:27.242Z,1302.00
2023-02-27T09:30:27.240Z,1104.00
2023-02-27T09:31:28.199Z,972.00
2023-02-27T09:32:27.431Z,1023.00
2023-02-27T09:33:29.159Z,1107.00
2023-02-27T09:34:27.280Z,1197.00
2023-02-27T09:35:27.311Z,1307.00
2023-02-27T09:36:27.653Z,1317.00
2023-02-27T09:37:27.307Z,1323.00
2023-02-27T09:38:27.305Z,1404.00
2023-02-27T09:39:27.311Z,1430.00
2023-02-27T09:40:27.341Z,1449.00
2023-02-27T09:41:27.840Z,1492.00
2023-02-27T09:42:27.445Z,1515.00
2023-02-27T09:43:27.479Z,1554.00
2023-02-27T09:44:39.855Z,1604.00
2023-02-27T09:45:28.639Z,1620.00
2023-02-27T09:46:27.815Z,1622.00
2023-02-27T09:47:27.461Z,1635.00
2023-02-27T09:48:27.496Z,1671.00
2023-02-27T09:49:27.434Z,1705.00
2023-02-27T09:50:27.416Z,1720.00
2023-02-27T09:51:28.411Z,1738.00
2023-02-27T09:52:27.469Z,1761.00
2023-02-27T09:53:27.370Z,1794.00
2023-02-27T09:54:27.352Z,1814.00
2023-02-27T09:55:27.345Z,1837.00
2023-02-27T09:56:27.746Z,1931.00
2023-02-27T09:57:27.351Z,1936.00
2023-02-27T09:58:27.346Z,1951.00
2023-02-27T09:59:27.404Z,1989.00
2023-02-27T10:00:27.335Z,2024.00
2023-02-27T10:01:27.638Z,2031.00
2023-02-27T10:02:27.331Z,2053.00
2023-02-27T10:03:27.371Z,2080.00
2023-02-27T10:04:27.310Z,2127.00
2023-02-27T10:05:27.366Z,2146.00
2023-02-27T10:06:27.571Z,2179.00
2023-02-27T10:07:27.338Z,2221.00
2023-02-27T10:08:27.347Z,2238.00
2023-02-27T10:09:27.339Z,2258.00
2023-02-27T10:10:27.327Z,2281.00
2023-02-27T10:11:27.333Z,2312.00
2023-02-27T10:12:27.346Z,2344.00
2023-02-27T10:13:27.364Z,2360.00
2023-02-27T10:14:27.390Z,2383.00
2023-02-27T10:15:27.431Z,2426.00
2023-02-27T10:16:27.914Z,2437.00
2023-02-27T10:17:27.469Z,2463.00
2023-02-27T10:18:30.666Z,2478.00
2023-02-27T10:19:27.479Z,2525.00
2023-02-27T10:20:27.464Z,2482.00
2023-02-27T10:21:29.323Z,2503.00
2023-02-27T10:22:27.432Z,2523.00
2023-02-27T10:23:27.416Z,2573.00
2023-02-27T10:24:27.444Z,2593.00
2023-02-27T10:25:31.791Z,2613.00
2023-02-27T10:26:28.840Z,2633.00
2023-02-27T10:27:27.369Z,2694.00
2023-02-27T10:28:27.345Z,2720.00
2023-02-27T10:29:27.428Z,2724.00
2023-02-27T10:30:30.511Z,2722.00
2023-02-27T10:31:27.752Z,2728.00
2023-02-27T10:32:27.276Z,2747.00
2023-02-27T10:33:28.377Z,2761.00
2023-02-27T10:34:27.253Z,2768.00
2023-02-27T10:35:27.287Z,2780.00
2023-02-27T10:36:33.919Z,2803.00
2023-02-27T10:37:28.335Z,2814.00
2023-02-27T10:38:27.189Z,2849.00
2023-02-27T10:39:27.165Z,2855.00
2023-02-27T10:40:27.151Z,2875.00
2023-02-27T10:41:27.454Z,2882.00
2023-02-27T10:42:27.101Z,2902.00
2023-02-27T10:43:27.092Z,2926.00
2023-02-27T10:44:27.083Z,2948.00
2023-02-27T10:45:27.057Z,2962.00
2023-02-27T10:46:27.328Z,2976.00
2023-02-27T10:47:27.132Z,2987.00
2023-02-27T10:48:27.114Z,3001.00
2023-02-27T10:49:27.138Z,3013.00
2023-02-27T10:50:27.244Z,3039.00
2023-02-27T10:51:27.681Z,3060.00
2023-02-27T10:52:27.257Z,3076.00
2023-02-27T10:53:27.343Z,3082.00
2023-02-27T10:54:27.361Z,3097.00
2023-02-27T10:55:27.400Z,3128.00
2023-02-27T10:56:27.895Z,3140.00
2023-02-27T10:57:27.496Z,3156.00
2023-02-27T10:58:28.503Z,3185.00
2023-02-27T10:59:27.629Z,3226.00
2023-02-27T11:00:28.426Z,3241.00
2023-02-27T11:01:27.842Z,3251.00
2023-02-27T11:02:27.533Z,3256.00
2023-02-27T11:03:27.527Z,3266.00
2023-02-27T11:04:27.553Z,3299.00
2023-02-27T11:05:27.546Z,3309.00
2023-02-27T11:06:27.558Z,3324.00
2023-02-27T11:07:27.526Z,3338.00
2023-02-27T11:08:27.534Z,3402.00
2023-02-27T11:09:27.516Z,3392.00
2023-02-27T11:10:27.512Z,3333.00
2023-02-27T11:11:27.915Z,3309.00
2023-02-27T11:12:27.515Z,3109.00
2023-02-27T11:13:27.513Z,3218.00
2023-02-27T11:14:27.515Z,3189.00
2023-02-27T11:15:27.519Z,3194.00
2023-02-27T11:16:27.530Z,3197.00
2023-02-27T11:17:27.569Z,3197.00
2023-02-27T11:18:27.591Z,3194.00
2023-02-27T11:19:27.637Z,3181.00
2023-02-27T11:20:27.588Z,3178.00
2023-02-27T11:21:28.083Z,3175.00
2023-02-27T11:22:27.634Z,3166.00
2023-02-27T11:23:27.656Z,3159.00
2023-02-27T11:24:27.672Z,3148.00
2023-02-27T11:25:27.697Z,3141.00
2023-02-27T11:26:27.717Z,3138.00
2023-02-27T11:27:27.753Z,3137.00
2023-02-27T11:28:27.792Z,3135.00
2023-02-27T11:29:27.824Z,3129.00
2023-02-27T11:30:27.878Z,3123.00
2023-02-27T11:31:28.293Z,3120.00
2023-02-27T11:32:27.921Z,3114.00
2023-02-27T11:33:27.961Z,3110.00
2023-02-27T11:34:27.994Z,3100.00
2023-02-27T11:35:28.049Z,3100.00
2023-02-27T11:36:28.084Z,3091.00
2023-02-27T11:37:28.133Z,3089.00
2023-02-27T11:38:28.171Z,3092.00
2023-02-27T11:46:10.769Z,3054.00
2023-02-27T11:59:28.767Z,2982.00
2023-02-27T12:00:28.900Z,2977.00
2023-02-27T12:01:29.208Z,2964.00
2023-02-27T12:02:28.937Z,2961.00
2023-02-27T12:03:28.943Z,2958.00
2023-02-27T12:04:29.954Z,2954.00
2023-02-27T12:05:29.061Z,2950.00
2023-02-27T12:06:29.118Z,2947.00
2023-02-27T12:07:29.173Z,2936.00
2023-02-27T12:08:29.209Z,2929.00
2023-02-27T12:09:29.289Z,2920.00
2023-02-27T12:11:07.758Z,2919.00
2023-02-27T12:11:58.303Z,2917.00
2023-02-27T12:12:57.322Z,2914.00
2023-02-27T12:13:57.352Z,2902.00
2023-02-27T12:26:57.784Z,2824.00
2023-02-27T12:27:57.854Z,2825.00
2023-02-27T12:28:57.931Z,2715.00
2023-02-27T12:29:58.002Z,2668.00
2023-02-27T12:30:58.084Z,2646.00
2023-02-27T12:31:58.290Z,2588.00
2023-02-27T12:32:58.327Z,2263.00
2023-02-27T12:33:58.340Z,2161.00
2023-02-27T12:34:58.439Z,2111.00
2023-02-27T12:35:58.615Z,2230.00
2023-02-27T12:36:58.704Z,2226.00
2023-02-27T12:37:58.712Z,2195.00
2023-02-27T12:38:58.779Z,2140.00
2023-02-27T12:40:58.984Z,2117.00
2023-02-27T12:41:59.135Z,2100.00
2023-02-27T12:42:59.156Z,2093.00
2023-02-27T12:43:59.265Z,2075.00
2023-02-27T12:44:59.317Z,2069.00
2023-02-27T12:45:59.556Z,2060.00
2023-02-27T12:46:59.500Z,2051.00
2023-02-27T12:47:59.647Z,2043.00
2023-02-27T12:48:59.755Z,2035.00
2023-02-27T12:49:59.800Z,2032.00
2023-02-27T12:50:59.874Z,2022.00
2023-02-27T12:51:59.971Z,2009.00
2023-02-27T12:53:00.055Z,2009.00
2023-02-27T12:54:00.182Z,2005.00
2023-02-27T12:55:00.234Z,2003.00
2023-02-27T12:56:00.340Z,1999.00
2023-02-27T12:57:00.423Z,2000.00
2023-02-27T12:58:00.519Z,1994.00
2023-02-27T12:59:00.618Z,1991.00
2023-02-27T13:00:01.128Z,1989.00
2023-02-27T13:01:00.895Z,1986.00
2023-02-27T13:02:00.910Z,1982.00
2023-02-27T13:03:01.449Z,1980.00
2023-02-27T13:04:01.138Z,1977.00
2023-02-27T13:05:01.192Z,1977.00
2023-02-27T13:06:01.279Z,1976.00
2023-02-27T13:07:01.369Z,1978.00
2023-02-27T13:08:02.360Z,1973.00
2023-02-27T13:09:01.557Z,1970.00
2023-02-27T13:10:01.658Z,1972.00
2023-02-27T13:11:01.740Z,1968.00
2023-02-27T13:12:01.826Z,1962.00
2023-02-27T13:13:01.920Z,1955.00
2023-02-27T13:14:02.018Z,1948.00
2023-02-27T13:15:02.113Z,1942.00
2023-02-27T13:16:02.187Z,1937.00
2023-02-27T14:02:05.988Z,1783.00
2023-02-27T14:03:06.097Z,1775.00
2023-02-27T14:04:06.105Z,1768.00
2023-02-27T14:05:06.139Z,1769.00
2023-02-27T14:06:06.264Z,1765.00
2023-02-27T14:07:06.962Z,1762.00
2023-02-27T14:08:06.293Z,1760.00
2023-02-27T14:09:14.891Z,1760.00
2023-02-27T14:10:08.878Z,1756.00
2023-02-27T14:11:06.405Z,1754.00
2023-02-27T14:12:06.425Z,1746.00
2023-02-27T14:13:06.453Z,1745.00
2023-02-27T14:14:06.522Z,1746.00
2023-02-27T14:15:06.510Z,1744.00
2023-02-27T14:16:06.535Z,1742.00
2023-02-27T14:17:06.546Z,1741.00
2023-02-27T14:18:17.876Z,1739.00
2023-02-27T14:19:07.605Z,1737.00
2023-02-27T14:20:06.632Z,1731.00
2023-02-27T14:21:06.668Z,1725.00
2023-02-27T14:22:06.666Z,1720.00
2023-02-27T14:23:06.699Z,1722.00
2023-02-27T14:24:06.711Z,1721.00
2023-02-27T14:25:06.745Z,1718.00
2023-02-27T14:26:06.969Z,1713.00
2023-02-27T14:27:07.468Z,1709.00
2023-02-27T14:28:06.847Z,1701.00
2023-02-27T14:29:06.836Z,1701.00
2023-02-27T14:30:06.863Z,1698.00
2023-02-27T14:31:06.935Z,1693.00
2023-02-27T14:32:07.140Z,1693.00
2023-02-27T14:33:08.170Z,1694.00
2023-02-27T14:34:07.086Z,1694.00
2023-02-27T14:35:07.127Z,1690.00
2023-02-27T14:36:07.162Z,1685.00
2023-02-27T14:37:07.219Z,1682.00
2023-02-27T14:38:08.089Z,1686.00
2023-02-27T14:39:07.311Z,1688.00
2023-02-27T14:40:07.385Z,1687.00
2023-02-27T14:41:07.397Z,1680.00
2023-02-27T14:42:07.490Z,1676.00
2023-02-27T14:43:07.491Z,1674.00
2023-02-27T14:44:07.534Z,1673.00
2023-02-27T14:45:08.470Z,1672.00
2023-02-27T14:46:07.673Z,1668.00
2023-02-27T14:47:07.667Z,1666.00
2023-02-27T14:48:07.812Z,1666.00
2023-02-27T14:49:07.785Z,1658.00
2023-02-27T14:50:07.800Z,1651.00
2023-02-27T14:51:07.833Z,1646.00
2023-02-27T14:52:07.880Z,1644.00
2023-02-27T14:53:07.987Z,1640.00
2023-02-27T14:54:07.962Z,1638.00
2023-02-27T14:55:07.989Z,1631.00
2023-02-27T14:56:08.105Z,1628.00
2023-02-27T14:57:08.063Z,1625.00
2023-02-27T14:58:08.109Z,1625.00
2023-02-27T14:59:08.129Z,1624.00
2023-02-27T15:00:08.176Z,1623.00
2023-02-27T15:01:08.200Z,1628.00
2023-02-27T15:02:08.236Z,1633.00
2023-02-27T15:03:10.791Z,1632.00
2023-02-27T15:04:08.684Z,1628.00
2023-02-27T15:05:08.508Z,1622.00
2023-02-27T15:06:08.553Z,1624.00
2023-02-27T15:07:08.604Z,1616.00
2023-02-27T15:08:08.644Z,1613.00
2023-02-27T15:09:08.688Z,1610.00
2023-02-27T15:10:08.720Z,1608.00
2023-02-27T15:11:08.829Z,1609.00
2023-02-27T15:17:08.954Z,1599.00
2023-02-27T15:38:09.738Z,1545.00
2023-02-27T15:39:09.785Z,1548.00
2023-02-27T15:40:09.812Z,1547.00
2023-02-27T15:41:09.858Z,1549.00
2023-02-27T15:42:09.892Z,1544.00
2023-02-27T15:43:09.934Z,1542.00
2023-02-27T15:44:09.986Z,1542.00
2023-02-27T15:45:10.019Z,1538.00
2023-02-27T15:46:10.228Z,1538.00
2023-02-27T15:47:10.095Z,1539.00
2023-02-27T15:48:10.134Z,1543.00
2023-02-27T15:49:10.180Z,1537.00
2023-02-27T15:50:10.229Z,1534.00
2023-02-27T15:51:10.257Z,1535.00
2023-02-27T15:52:10.293Z,1533.00
2023-02-27T15:53:10.428Z,1529.00
2023-02-27T15:54:10.434Z,1525.00
2023-02-27T15:55:10.414Z,1524.00
2023-02-27T15:56:10.454Z,1519.00
2023-02-27T15:57:10.499Z,1517.00
2023-02-27T15:58:10.554Z,1519.00
2023-02-27T15:59:10.580Z,1516.00
2023-02-27T16:00:10.627Z,1513.00
2023-02-27T16:01:10.697Z,1515.00
2023-02-27T16:02:10.712Z,1513.00
2023-02-27T16:03:10.761Z,1510.00
2023-02-27T16:04:10.795Z,1508.00
2023-02-27T16:05:10.833Z,1506.00
2023-02-27T16:06:10.904Z,1505.00
2023-02-27T16:07:10.911Z,1503.00
2023-02-27T16:08:10.968Z,1502.00
2023-02-27T16:09:11.024Z,1499.00
2023-02-27T16:10:11.158Z,1498.00
2023-02-27T16:11:11.109Z,1493.00
2023-02-27T16:12:11.163Z,1489.00
2023-02-27T16:13:11.196Z,1487.00
2023-02-27T16:14:11.277Z,1487.00
2023-02-27T16:15:11.280Z,1485.00
2023-02-27T16:16:11.377Z,1483.00
2023-02-27T16:17:11.361Z,1484.00
2023-02-27T16:18:11.430Z,1484.00
2023-02-27T16:19:11.444Z,1480.00
2023-02-27T16:20:11.481Z,1478.00
2023-02-27T16:21:11.532Z,1476.00
2023-02-27T16:22:11.578Z,1472.00
2023-02-27T16:23:11.609Z,1469.00
2023-02-27T16:24:11.651Z,1467.00
2023-02-27T16:25:11.710Z,1464.00
2023-02-27T16:26:11.747Z,1464.00
2023-02-27T16:27:11.804Z,1461.00
2023-02-27T16:28:11.839Z,1454.00
2023-02-27T16:29:11.879Z,1453.00
2023-02-27T16:30:11.934Z,1448.00
2023-02-27T16:31:13.745Z,1444.00
2023-02-27T16:32:12.108Z,1444.00
2023-02-27T16:33:12.055Z,1439.00
2023-02-27T16:34:12.099Z,1441.00
2023-02-27T16:35:12.136Z,1440.00
2023-02-27T16:36:12.170Z,1440.00
2023-02-27T16:37:14.005Z,1438.00
2023-02-27T16:38:12.255Z,1439.00
2023-02-27T16:39:12.299Z,1437.00
2023-02-27T16:40:12.464Z,1437.00
2023-02-27T16:41:12.482Z,1431.00
2023-02-27T16:42:12.419Z,1429.00
2023-02-27T16:43:12.465Z,1423.00
2023-02-27T16:44:12.507Z,1423.00
2023-02-27T16:45:12.566Z,1423.00
2023-02-27T16:46:12.640Z,1423.00
2023-02-27T16:47:12.669Z,1422.00
2023-02-27T16:48:13.016Z,1420.00
2023-02-27T16:49:19.799Z,1414.00
2023-02-27T16:50:13.777Z,1408.00
2023-02-27T16:51:12.815Z,1406.00
2023-02-27T16:52:12.835Z,1403.00
2023-02-27T16:53:12.879Z,1402.00
2023-02-27T16:54:12.903Z,1398.00
2023-02-27T16:55:12.928Z,1402.00
2023-02-27T16:56:12.957Z,1402.00
2023-02-27T16:57:12.986Z,1401.00
2023-02-27T16:58:13.011Z,1398.00
2023-02-27T16:59:13.072Z,1396.00
2023-02-27T17:00:13.105Z,1392.00
2023-02-27T17:01:13.198Z,1392.00
2023-02-27T17:02:13.253Z,1393.00
2023-02-27T17:03:13.231Z,1395.00
2023-02-27T17:04:24.964Z,1393.00
2023-02-27T17:05:14.228Z,1388.00
2023-02-27T17:06:13.251Z,1381.00
2023-02-27T17:07:13.288Z,1381.00
2023-02-27T17:08:13.314Z,1379.00
2023-02-27T17:09:13.357Z,1378.00
2023-02-27T17:10:13.375Z,1378.00
2023-02-27T17:11:13.400Z,1376.00
2023-02-27T17:12:13.421Z,1369.00
2023-02-27T17:13:13.453Z,1364.00
2023-02-27T17:14:13.493Z,1367.00
2023-02-27T17:15:13.517Z,1363.00
2023-02-27T17:16:13.641Z,1362.00
2023-02-27T18:07:16.565Z,1277.00
2023-02-27T18:13:15.969Z,1271.00
2023-02-27T18:14:16.013Z,1270.00
2023-02-27T18:15:16.064Z,1266.00
2023-02-27T18:16:16.138Z,1265.00
2023-02-27T18:17:16.242Z,1261.00
2023-02-27T18:18:16.216Z,1262.00
2023-02-27T18:19:16.257Z,1262.00
2023-02-27T18:20:16.312Z,1261.00
2023-02-27T18:21:16.431Z,1263.00
2023-02-27T18:22:16.441Z,1258.00
2023-02-27T18:23:16.466Z,1257.00
2023-02-27T18:24:16.531Z,1256.00
2023-02-27T18:25:16.897Z,1255.00
2023-02-27T18:26:27.443Z,1253.00
2023-02-27T18:28:16.705Z,1251.00
2023-02-27T18:29:16.863Z,1248.00
2023-02-27T18:30:17.058Z,1246.00
2023-02-27T18:31:16.864Z,1245.00
2023-02-27T18:32:16.885Z,1243.00
2023-02-27T18:33:16.871Z,1245.00
2023-02-27T18:34:16.902Z,1241.00
2023-02-27T18:35:16.942Z,1239.00
2023-02-27T18:36:16.982Z,1234.00
2023-02-27T18:37:17.073Z,1232.00
2023-02-27T18:38:17.035Z,1231.00
2023-02-27T18:39:17.073Z,1231.00
2023-02-27T18:40:17.120Z,1231.00
2023-02-27T18:41:17.160Z,1234.00
2023-02-27T18:42:17.203Z,1230.00
2023-02-27T18:56:17.719Z,1209.00
2023-02-27T18:57:17.780Z,1205.00
2023-02-27T18:58:18.067Z,1202.00
2023-02-27T18:59:17.887Z,1202.00
2023-02-27T19:00:17.941Z,1199.00
2023-02-27T19:01:18.016Z,1196.00
2023-02-27T19:02:18.053Z,1196.00
2023-02-27T19:03:18.176Z,1196.00
2023-02-27T19:04:18.167Z,1192.00
2023-02-27T21:15:25.960Z,1022.00